sensor_id;sensor_type;location;lat;lon;timestamp;temperature;humidity
42965;DHT22;28604;51.204;22.552;2023-01-29T00:02:16;1.00;90.20
42965;DHT22;28604;51.204;22.552;2023-01-29T00:04:42;1.00;90.10
42965;DHT22;28604;51.204;22.552;2023-01-29T00:07:08;1.00;89.80
42965;DHT22;28604;51.204;22.552;2023-01-29T00:09:34;1.00;89.80
42965;DHT22;28604;51.204;22.552;2023-01-29T00:12:00;1.00;89.70
42965;DHT22;28604;51.204;22.552;2023-01-29T00:14:26;1.00;89.60
42965;DHT22;28604;51.204;22.552;2023-01-29T00:16:53;0.90;89.90
42965;DHT22;28604;51.204;22.552;2023-01-29T00:19:18;1.00;89.40
42965;DHT22;28604;51.204;22.552;2023-01-29T00:21:45;0.90;89.20
42965;DHT22;28604;51.204;22.552;2023-01-29T00:24:11;0.90;89.40
42965;DHT22;28604;51.204;22.552;2023-01-29T00:26:38;0.90;89.20
42965;DHT22;28604;51.204;22.552;2023-01-29T00:29:05;0.90;89.20
42965;DHT22;28604;51.204;22.552;2023-01-29T00:31:31;0.90;89.60
42965;DHT22;28604;51.204;22.552;2023-01-29T00:33:56;0.90;89.20
42965;DHT22;28604;51.204;22.552;2023-01-29T00:36:24;0.90;89.00
42965;DHT22;28604;51.204;22.552;2023-01-29T00:38:58;0.90;88.80
42965;DHT22;28604;51.204;22.552;2023-01-29T00:41:27;0.90;88.80
42965;DHT22;28604;51.204;22.552;2023-01-29T00:44:12;0.90;88.90
42965;DHT22;28604;51.204;22.552;2023-01-29T00:46:57;0.80;88.80
42965;DHT22;28604;51.204;22.552;2023-01-29T00:49:24;0.80;88.70
42965;DHT22;28604;51.204;22.552;2023-01-29T00:51:50;0.80;88.40
42965;DHT22;28604;51.204;22.552;2023-01-29T00:54:35;0.80;88.40
42965;DHT22;28604;51.204;22.552;2023-01-29T00:57:02;0.80;88.30
42965;DHT22;28604;51.204;22.552;2023-01-29T00:59:28;0.80;88.40
42965;DHT22;28604;51.204;22.552;2023-01-29T01:01:55;0.80;88.30
42965;DHT22;28604;51.204;22.552;2023-01-29T01:04:42;0.80;88.40
42965;DHT22;28604;51.204;22.552;2023-01-29T01:07:08;0.80;88.30
42965;DHT22;28604;51.204;22.552;2023-01-29T01:09:35;0.80;88.00
42965;DHT22;28604;51.204;22.552;2023-01-29T01:12:20;0.70;87.80
42965;DHT22;28604;51.204;22.552;2023-01-29T01:14:47;0.70;87.40
42965;DHT22;28604;51.204;22.552;2023-01-29T01:17:13;0.70;87.00
42965;DHT22;28604;51.204;22.552;2023-01-29T01:19:40;0.70;87.20
42965;DHT22;28604;51.204;22.552;2023-01-29T01:22:06;0.70;87.50
42965;DHT22;28604;51.204;22.552;2023-01-29T01:24:32;0.70;87.20
42965;DHT22;28604;51.204;22.552;2023-01-29T01:26:58;0.70;87.40
42965;DHT22;28604;51.204;22.552;2023-01-29T01:29:24;0.70;87.50
42965;DHT22;28604;51.204;22.552;2023-01-29T01:31:52;0.70;87.50
42965;DHT22;28604;51.204;22.552;2023-01-29T01:34:18;0.70;87.40
42965;DHT22;28604;51.204;22.552;2023-01-29T01:36:44;0.70;87.10
42965;DHT22;28604;51.204;22.552;2023-01-29T01:39:10;0.70;87.20
42965;DHT22;28604;51.204;22.552;2023-01-29T01:41:36;0.60;87.30
42965;DHT22;28604;51.204;22.552;2023-01-29T01:44:03;0.70;87.40
42965;DHT22;28604;51.204;22.552;2023-01-29T01:46:32;0.70;87.50
42965;DHT22;28604;51.204;22.552;2023-01-29T01:49:09;0.70;87.40
42965;DHT22;28604;51.204;22.552;2023-01-29T01:51:40;0.70;87.40
42965;DHT22;28604;51.204;22.552;2023-01-29T01:54:27;0.60;87.30
42965;DHT22;28604;51.204;22.552;2023-01-29T01:57:00;0.60;87.20
42965;DHT22;28604;51.204;22.552;2023-01-29T02:02:42;0.60;87.40
42965;DHT22;28604;51.204;22.552;2023-01-29T02:05:30;0.60;87.20
42965;DHT22;28604;51.204;22.552;2023-01-29T02:08:27;0.50;87.30
42965;DHT22;28604;51.204;22.552;2023-01-29T02:11:12;0.60;87.50
42965;DHT22;28604;51.204;22.552;2023-01-29T02:13:39;0.60;87.30
42965;DHT22;28604;51.204;22.552;2023-01-29T02:16:07;0.50;87.10
42965;DHT22;28604;51.204;22.552;2023-01-29T02:18:33;0.50;87.40
42965;DHT22;28604;51.204;22.552;2023-01-29T02:26:14;0.50;87.50
42965;DHT22;28604;51.204;22.552;2023-01-29T02:31:29;0.50;87.00
42965;DHT22;28604;51.204;22.552;2023-01-29T02:39:34;0.50;87.10
42965;DHT22;28604;51.204;22.552;2023-01-29T02:42:27;0.40;87.10
42965;DHT22;28604;51.204;22.552;2023-01-29T02:44:59;0.40;86.40
42965;DHT22;28604;51.204;22.552;2023-01-29T02:47:33;0.40;86.50
42965;DHT22;28604;51.204;22.552;2023-01-29T02:50:55;0.40;86.80
42965;DHT22;28604;51.204;22.552;2023-01-29T02:53:15;0.50;87.10
42965;DHT22;28604;51.204;22.552;2023-01-29T02:55:53;0.40;87.00
42965;DHT22;28604;51.204;22.552;2023-01-29T03:00:51;0.40;87.20
42965;DHT22;28604;51.204;22.552;2023-01-29T03:03:24;0.50;87.00
42965;DHT22;28604;51.204;22.552;2023-01-29T03:06:17;0.40;87.20
42965;DHT22;28604;51.204;22.552;2023-01-29T03:09:36;0.50;87.10
42965;DHT22;28604;51.204;22.552;2023-01-29T03:11:50;0.50;87.20
42965;DHT22;28604;51.204;22.552;2023-01-29T03:14:29;0.50;87.30
42965;DHT22;28604;51.204;22.552;2023-01-29T03:17:21;0.50;87.20
42965;DHT22;28604;51.204;22.552;2023-01-29T03:19:49;0.40;87.20
42965;DHT22;28604;51.204;22.552;2023-01-29T03:22:23;0.40;87.10
42965;DHT22;28604;51.204;22.552;2023-01-29T03:24:54;0.40;86.30
42965;DHT22;28604;51.204;22.552;2023-01-29T03:27:48;0.40;86.80
42965;DHT22;28604;51.204;22.552;2023-01-29T03:30:56;0.40;86.30
42965;DHT22;28604;51.204;22.552;2023-01-29T03:34:20;0.30;85.20
42965;DHT22;28604;51.204;22.552;2023-01-29T03:37:04;0.30;84.80
42965;DHT22;28604;51.204;22.552;2023-01-29T03:39:35;0.30;85.20
42965;DHT22;28604;51.204;22.552;2023-01-29T03:53:20;0.10;83.70
42965;DHT22;28604;51.204;22.552;2023-01-29T03:56:04;0.00;83.60
42965;DHT22;28604;51.204;22.552;2023-01-29T03:58:42;0.00;84.00
42965;DHT22;28604;51.204;22.552;2023-01-29T04:01:16;0.00;84.90
42965;DHT22;28604;51.204;22.552;2023-01-29T04:06:50;0.10;84.70
42965;DHT22;28604;51.204;22.552;2023-01-29T04:09:21;0.00;83.90
42965;DHT22;28604;51.204;22.552;2023-01-29T04:12:03;0.00;84.00
42965;DHT22;28604;51.204;22.552;2023-01-29T04:14:31;0.00;84.50
42965;DHT22;28604;51.204;22.552;2023-01-29T04:17:01;-0.10;83.30
42965;DHT22;28604;51.204;22.552;2023-01-29T04:19:32;-0.10;84.20
42965;DHT22;28604;51.204;22.552;2023-01-29T04:22:06;-0.10;84.40
42965;DHT22;28604;51.204;22.552;2023-01-29T04:24:36;-0.10;84.40
42965;DHT22;28604;51.204;22.552;2023-01-29T04:28:23;-0.10;84.20
42965;DHT22;28604;51.204;22.552;2023-01-29T04:36:27;-0.10;84.50
42965;DHT22;28604;51.204;22.552;2023-01-29T04:39:08;-0.10;84.40
42965;DHT22;28604;51.204;22.552;2023-01-29T04:41:42;-0.10;85.10
42965;DHT22;28604;51.204;22.552;2023-01-29T04:49:42;0.00;85.20
42965;DHT22;28604;51.204;22.552;2023-01-29T04:52:38;-0.10;85.00
42965;DHT22;28604;51.204;22.552;2023-01-29T04:55:19;0.00;85.40
42965;DHT22;28604;51.204;22.552;2023-01-29T04:57:53;0.00;85.30
42965;DHT22;28604;51.204;22.552;2023-01-29T05:00:28;0.00;84.80
42965;DHT22;28604;51.204;22.552;2023-01-29T05:02:58;-0.10;84.70
42965;DHT22;28604;51.204;22.552;2023-01-29T05:05:25;-0.10;84.50
42965;DHT22;28604;51.204;22.552;2023-01-29T05:07:53;-0.10;83.90
42965;DHT22;28604;51.204;22.552;2023-01-29T05:10:21;-0.10;83.30
42965;DHT22;28604;51.204;22.552;2023-01-29T05:12:57;-0.10;83.50
42965;DHT22;28604;51.204;22.552;2023-01-29T05:15:40;-0.30;83.00
42965;DHT22;28604;51.204;22.552;2023-01-29T05:18:08;-0.20;83.50
42965;DHT22;28604;51.204;22.552;2023-01-29T05:20:37;-0.30;84.00
42965;DHT22;28604;51.204;22.552;2023-01-29T05:23:07;-0.30;84.10
42965;DHT22;28604;51.204;22.552;2023-01-29T05:25:34;-0.30;84.20
42965;DHT22;28604;51.204;22.552;2023-01-29T05:28:00;-0.30;84.10
42965;DHT22;28604;51.204;22.552;2023-01-29T05:30:31;-0.30;84.30
42965;DHT22;28604;51.204;22.552;2023-01-29T05:32:57;-0.30;84.40
42965;DHT22;28604;51.204;22.552;2023-01-29T05:35:23;-0.30;84.40
42965;DHT22;28604;51.204;22.552;2023-01-29T05:37:49;-0.20;84.50
42965;DHT22;28604;51.204;22.552;2023-01-29T05:40:15;-0.30;84.60
42965;DHT22;28604;51.204;22.552;2023-01-29T05:42:41;-0.30;83.50
42965;DHT22;28604;51.204;22.552;2023-01-29T05:45:08;-0.30;83.20
42965;DHT22;28604;51.204;22.552;2023-01-29T05:47:34;-0.30;83.50
42965;DHT22;28604;51.204;22.552;2023-01-29T05:50:00;-0.30;83.50
42965;DHT22;28604;51.204;22.552;2023-01-29T05:52:25;-0.40;82.70
42965;DHT22;28604;51.204;22.552;2023-01-29T05:54:52;-0.40;83.70
42965;DHT22;28604;51.204;22.552;2023-01-29T05:57:17;-0.40;83.90
42965;DHT22;28604;51.204;22.552;2023-01-29T05:59:43;-0.40;83.70
42965;DHT22;28604;51.204;22.552;2023-01-29T06:02:09;-0.40;84.00
42965;DHT22;28604;51.204;22.552;2023-01-29T06:04:35;-0.40;84.00
42965;DHT22;28604;51.204;22.552;2023-01-29T06:07:01;-0.40;83.00
42965;DHT22;28604;51.204;22.552;2023-01-29T06:09:28;-0.40;83.20
42965;DHT22;28604;51.204;22.552;2023-01-29T06:11:54;-0.50;83.70
42965;DHT22;28604;51.204;22.552;2023-01-29T06:14:20;-0.40;83.10
42965;DHT22;28604;51.204;22.552;2023-01-29T06:16:45;-0.50;82.40
42965;DHT22;28604;51.204;22.552;2023-01-29T06:19:12;-0.50;82.90
42965;DHT22;28604;51.204;22.552;2023-01-29T06:21:37;-0.50;83.20
42965;DHT22;28604;51.204;22.552;2023-01-29T06:24:04;-0.60;82.10
42965;DHT22;28604;51.204;22.552;2023-01-29T06:26:30;-0.60;83.00
42965;DHT22;28604;51.204;22.552;2023-01-29T06:28:56;-0.60;82.60
42965;DHT22;28604;51.204;22.552;2023-01-29T06:31:21;-0.60;81.20
42965;DHT22;28604;51.204;22.552;2023-01-29T06:33:47;-0.60;82.10
42965;DHT22;28604;51.204;22.552;2023-01-29T06:36:13;-0.60;81.40
42965;DHT22;28604;51.204;22.552;2023-01-29T06:38:39;-0.60;82.70
42965;DHT22;28604;51.204;22.552;2023-01-29T06:41:13;-0.60;82.80
42965;DHT22;28604;51.204;22.552;2023-01-29T06:43:43;-0.60;83.10
42965;DHT22;28604;51.204;22.552;2023-01-29T06:46:09;-0.50;83.70
42965;DHT22;28604;51.204;22.552;2023-01-29T06:48:35;-0.50;82.90
42965;DHT22;28604;51.204;22.552;2023-01-29T06:51:03;-0.50;83.70
42965;DHT22;28604;51.204;22.552;2023-01-29T06:53:29;-0.50;83.10
42965;DHT22;28604;51.204;22.552;2023-01-29T06:55:55;-0.50;82.60
42965;DHT22;28604;51.204;22.552;2023-01-29T06:58:21;-0.50;82.20
42965;DHT22;28604;51.204;22.552;2023-01-29T07:00:47;-0.50;82.70
42965;DHT22;28604;51.204;22.552;2023-01-29T07:03:13;-0.50;82.80
42965;DHT22;28604;51.204;22.552;2023-01-29T07:05:39;-0.40;82.80
42965;DHT22;28604;51.204;22.552;2023-01-29T07:08:06;-0.40;83.10
42965;DHT22;28604;51.204;22.552;2023-01-29T07:10:31;-0.40;82.40
42965;DHT22;28604;51.204;22.552;2023-01-29T07:12:58;-0.40;82.70
42965;DHT22;28604;51.204;22.552;2023-01-29T07:15:24;-0.40;83.10
42965;DHT22;28604;51.204;22.552;2023-01-29T07:18:01;-0.40;81.80
42965;DHT22;28604;51.204;22.552;2023-01-29T07:20:28;-0.40;81.70
42965;DHT22;28604;51.204;22.552;2023-01-29T07:22:58;-0.40;82.00
42965;DHT22;28604;51.204;22.552;2023-01-29T07:25:24;-0.30;82.30
42965;DHT22;28604;51.204;22.552;2023-01-29T07:27:50;-0.40;82.30
42965;DHT22;28604;51.204;22.552;2023-01-29T07:30:16;-0.30;82.30
42965;DHT22;28604;51.204;22.552;2023-01-29T07:32:43;-0.30;82.30
42965;DHT22;28604;51.204;22.552;2023-01-29T07:35:09;-0.30;81.60
42965;DHT22;28604;51.204;22.552;2023-01-29T07:37:35;-0.30;81.20
42965;DHT22;28604;51.204;22.552;2023-01-29T07:40:01;-0.30;82.00
42965;DHT22;28604;51.204;22.552;2023-01-29T07:42:30;-0.20;82.00
42965;DHT22;28604;51.204;22.552;2023-01-29T07:44:56;-0.30;81.50
42965;DHT22;28604;51.204;22.552;2023-01-29T07:47:22;-0.20;82.00
42965;DHT22;28604;51.204;22.552;2023-01-29T07:49:48;-0.20;82.80
42965;DHT22;28604;51.204;22.552;2023-01-29T07:52:14;-0.30;80.10
42965;DHT22;28604;51.204;22.552;2023-01-29T07:54:40;-0.20;81.70
42965;DHT22;28604;51.204;22.552;2023-01-29T07:57:06;-0.10;81.10
42965;DHT22;28604;51.204;22.552;2023-01-29T07:59:32;-0.10;80.30
42965;DHT22;28604;51.204;22.552;2023-01-29T08:01:58;-0.20;80.80
42965;DHT22;28604;51.204;22.552;2023-01-29T08:04:24;-0.10;81.50
42965;DHT22;28604;51.204;22.552;2023-01-29T08:06:50;-0.10;81.30
42965;DHT22;28604;51.204;22.552;2023-01-29T08:09:15;-0.10;80.60
42965;DHT22;28604;51.204;22.552;2023-01-29T08:11:43;-0.10;81.30
42965;DHT22;28604;51.204;22.552;2023-01-29T08:14:09;-0.10;80.70
42965;DHT22;28604;51.204;22.552;2023-01-29T08:16:35;-0.10;80.90
42965;DHT22;28604;51.204;22.552;2023-01-29T08:19:01;0.00;80.90
42965;DHT22;28604;51.204;22.552;2023-01-29T08:21:28;-0.10;79.70
42965;DHT22;28604;51.204;22.552;2023-01-29T08:23:54;-0.10;80.00
42965;DHT22;28604;51.204;22.552;2023-01-29T08:26:20;0.00;80.20
42965;DHT22;28604;51.204;22.552;2023-01-29T08:28:46;-0.10;80.30
42965;DHT22;28604;51.204;22.552;2023-01-29T08:31:18;0.00;80.20
42965;DHT22;28604;51.204;22.552;2023-01-29T08:33:47;-0.10;79.60
42965;DHT22;28604;51.204;22.552;2023-01-29T08:36:13;-0.20;80.10
42965;DHT22;28604;51.204;22.552;2023-01-29T08:38:39;-0.10;80.80
42965;DHT22;28604;51.204;22.552;2023-01-29T08:41:06;-0.10;80.50
42965;DHT22;28604;51.204;22.552;2023-01-29T08:43:32;-0.10;80.70
42965;DHT22;28604;51.204;22.552;2023-01-29T08:46:05;-0.10;79.80
42965;DHT22;28604;51.204;22.552;2023-01-29T08:48:31;-0.10;79.50
42965;DHT22;28604;51.204;22.552;2023-01-29T08:51:00;0.00;79.90
42965;DHT22;28604;51.204;22.552;2023-01-29T08:53:26;0.00;79.80
42965;DHT22;28604;51.204;22.552;2023-01-29T08:55:53;0.00;80.30
42965;DHT22;28604;51.204;22.552;2023-01-29T08:58:19;0.00;80.30
42965;DHT22;28604;51.204;22.552;2023-01-29T09:00:45;0.00;80.60
42965;DHT22;28604;51.204;22.552;2023-01-29T09:03:12;0.10;79.70
42965;DHT22;28604;51.204;22.552;2023-01-29T09:05:41;0.10;79.10
42965;DHT22;28604;51.204;22.552;2023-01-29T09:08:08;0.10;79.30
42965;DHT22;28604;51.204;22.552;2023-01-29T09:10:35;0.00;79.20
42965;DHT22;28604;51.204;22.552;2023-01-29T09:13:01;0.00;79.30
42965;DHT22;28604;51.204;22.552;2023-01-29T09:15:27;0.00;79.90
42965;DHT22;28604;51.204;22.552;2023-01-29T09:17:53;0.10;79.50
42965;DHT22;28604;51.204;22.552;2023-01-29T09:20:19;0.10;80.50
42965;DHT22;28604;51.204;22.552;2023-01-29T09:22:45;0.20;79.50
42965;DHT22;28604;51.204;22.552;2023-01-29T09:25:12;0.20;78.50
42965;DHT22;28604;51.204;22.552;2023-01-29T09:27:38;0.20;79.10
42965;DHT22;28604;51.204;22.552;2023-01-29T09:30:04;0.30;78.70
42965;DHT22;28604;51.204;22.552;2023-01-29T09:32:32;0.30;78.80
42965;DHT22;28604;51.204;22.552;2023-01-29T09:34:58;0.40;79.10
42965;DHT22;28604;51.204;22.552;2023-01-29T09:37:24;0.40;78.90
42965;DHT22;28604;51.204;22.552;2023-01-29T09:39:50;0.40;78.40
42965;DHT22;28604;51.204;22.552;2023-01-29T09:42:43;0.40;79.00
42965;DHT22;28604;51.204;22.552;2023-01-29T09:45:15;0.50;78.40
42965;DHT22;28604;51.204;22.552;2023-01-29T09:47:42;0.50;79.00
42965;DHT22;28604;51.204;22.552;2023-01-29T09:50:17;0.60;79.40
42965;DHT22;28604;51.204;22.552;2023-01-29T09:52:51;0.50;78.50
42965;DHT22;28604;51.204;22.552;2023-01-29T09:55:25;0.60;77.80
42965;DHT22;28604;51.204;22.552;2023-01-29T09:58:20;0.60;77.90
42965;DHT22;28604;51.204;22.552;2023-01-29T10:01:04;0.60;78.50
42965;DHT22;28604;51.204;22.552;2023-01-29T10:07:01;0.70;78.40
42965;DHT22;28604;51.204;22.552;2023-01-29T10:18:28;0.80;77.50
42965;DHT22;28604;51.204;22.552;2023-01-29T10:26:13;0.90;77.40
42965;DHT22;28604;51.204;22.552;2023-01-29T10:28:44;1.30;78.70
42965;DHT22;28604;51.204;22.552;2023-01-29T10:31:25;1.30;77.70
42965;DHT22;28604;51.204;22.552;2023-01-29T10:33:58;1.40;76.40
42965;DHT22;28604;51.204;22.552;2023-01-29T10:36:44;1.60;75.60
42965;DHT22;28604;51.204;22.552;2023-01-29T10:39:24;1.80;77.20
42965;DHT22;28604;51.204;22.552;2023-01-29T10:44:35;2.30;74.50
42965;DHT22;28604;51.204;22.552;2023-01-29T10:50:04;2.60;73.10
42965;DHT22;28604;51.204;22.552;2023-01-29T11:00:25;2.40;73.00
42965;DHT22;28604;51.204;22.552;2023-01-29T11:02:52;2.40;72.90
42965;DHT22;28604;51.204;22.552;2023-01-29T11:05:39;2.40;73.40
42965;DHT22;28604;51.204;22.552;2023-01-29T11:08:19;2.40;72.60
42965;DHT22;28604;51.204;22.552;2023-01-29T11:11:10;2.20;72.90
42965;DHT22;28604;51.204;22.552;2023-01-29T11:13:49;2.10;73.20
42965;DHT22;28604;51.204;22.552;2023-01-29T11:16:17;2.10;73.50
42965;DHT22;28604;51.204;22.552;2023-01-29T11:19:00;2.00;74.00
42965;DHT22;28604;51.204;22.552;2023-01-29T11:21:27;1.90;73.80
42965;DHT22;28604;51.204;22.552;2023-01-29T11:24:10;1.90;74.30
42965;DHT22;28604;51.204;22.552;2023-01-29T11:26:41;2.00;75.40
42965;DHT22;28604;51.204;22.552;2023-01-29T11:31:52;2.10;74.20
42965;DHT22;28604;51.204;22.552;2023-01-29T11:34:21;2.20;74.10
42965;DHT22;28604;51.204;22.552;2023-01-29T11:37:15;2.20;75.20
42965;DHT22;28604;51.204;22.552;2023-01-29T11:39:45;2.30;74.80
42965;DHT22;28604;51.204;22.552;2023-01-29T11:42:22;2.30;74.10
42965;DHT22;28604;51.204;22.552;2023-01-29T11:44:48;2.30;74.10
42965;DHT22;28604;51.204;22.552;2023-01-29T11:47:21;2.40;73.60
42965;DHT22;28604;51.204;22.552;2023-01-29T11:49:54;2.30;73.00
42965;DHT22;28604;51.204;22.552;2023-01-29T11:52:22;2.20;73.20
42965;DHT22;28604;51.204;22.552;2023-01-29T11:54:54;2.30;73.80
42965;DHT22;28604;51.204;22.552;2023-01-29T11:57:35;2.40;73.80
42965;DHT22;28604;51.204;22.552;2023-01-29T12:00:16;2.30;73.50
42965;DHT22;28604;51.204;22.552;2023-01-29T12:05:33;2.30;73.50
42965;DHT22;28604;51.204;22.552;2023-01-29T12:08:00;2.30;72.90
42965;DHT22;28604;51.204;22.552;2023-01-29T12:10:38;2.30;73.40
42965;DHT22;28604;51.204;22.552;2023-01-29T12:15:45;2.20;74.00
42965;DHT22;28604;51.204;22.552;2023-01-29T12:18:23;2.30;73.40
42965;DHT22;28604;51.204;22.552;2023-01-29T12:21:00;2.20;73.90
42965;DHT22;28604;51.204;22.552;2023-01-29T12:26:26;2.20;74.10
42965;DHT22;28604;51.204;22.552;2023-01-29T12:39:45;2.10;74.00
42965;DHT22;28604;51.204;22.552;2023-01-29T12:42:16;2.10;73.90
42965;DHT22;28604;51.204;22.552;2023-01-29T12:52:46;2.20;74.50
42965;DHT22;28604;51.204;22.552;2023-01-29T12:55:28;2.20;73.40
42965;DHT22;28604;51.204;22.552;2023-01-29T12:57:58;2.10;74.30
42965;DHT22;28604;51.204;22.552;2023-01-29T13:00:28;2.10;74.60
42965;DHT22;28604;51.204;22.552;2023-01-29T13:05:47;2.00;74.10
42965;DHT22;28604;51.204;22.552;2023-01-29T13:10:49;1.90;74.40
42965;DHT22;28604;51.204;22.552;2023-01-29T13:13:29;1.90;74.30
42965;DHT22;28604;51.204;22.552;2023-01-29T13:15:57;1.90;74.60
42965;DHT22;28604;51.204;22.552;2023-01-29T13:18:46;1.80;74.60
42965;DHT22;28604;51.204;22.552;2023-01-29T13:21:21;1.90;75.00
42965;DHT22;28604;51.204;22.552;2023-01-29T13:23:55;1.90;74.90
42965;DHT22;28604;51.204;22.552;2023-01-29T13:26:23;1.90;75.10
42965;DHT22;28604;51.204;22.552;2023-01-29T13:28:51;1.90;74.90
42965;DHT22;28604;51.204;22.552;2023-01-29T13:31:31;1.80;74.80
42965;DHT22;28604;51.204;22.552;2023-01-29T13:34:26;1.80;74.50
42965;DHT22;28604;51.204;22.552;2023-01-29T13:37:08;1.70;74.80
42965;DHT22;28604;51.204;22.552;2023-01-29T13:39:36;1.70;75.00
42965;DHT22;28604;51.204;22.552;2023-01-29T13:42:23;1.60;75.40
42965;DHT22;28604;51.204;22.552;2023-01-29T13:44:53;1.60;75.40
42965;DHT22;28604;51.204;22.552;2023-01-29T13:47:27;1.50;75.60
42965;DHT22;28604;51.204;22.552;2023-01-29T13:50:06;1.50;75.90
42965;DHT22;28604;51.204;22.552;2023-01-29T13:52:44;1.50;76.70
42965;DHT22;28604;51.204;22.552;2023-01-29T13:55:26;1.50;76.80
42965;DHT22;28604;51.204;22.552;2023-01-29T13:58:00;1.50;76.70
42965;DHT22;28604;51.204;22.552;2023-01-29T14:05:52;1.60;76.70
42965;DHT22;28604;51.204;22.552;2023-01-29T14:13:39;1.50;77.00
42965;DHT22;28604;51.204;22.552;2023-01-29T14:18:34;1.40;77.30
42965;DHT22;28604;51.204;22.552;2023-01-29T14:21:06;1.40;77.30
42965;DHT22;28604;51.204;22.552;2023-01-29T14:24:10;1.40;76.70
42965;DHT22;28604;51.204;22.552;2023-01-29T14:29:22;1.30;77.10
42965;DHT22;28604;51.204;22.552;2023-01-29T14:42:21;1.30;78.10
42965;DHT22;28604;51.204;22.552;2023-01-29T14:52:53;1.20;78.80
42965;DHT22;28604;51.204;22.552;2023-01-29T14:58:40;1.20;79.10
42965;DHT22;28604;51.204;22.552;2023-01-29T15:01:10;1.20;79.40
42965;DHT22;28604;51.204;22.552;2023-01-29T15:03:45;1.20;79.50
42965;DHT22;28604;51.204;22.552;2023-01-29T15:06:39;1.10;79.70
42965;DHT22;28604;51.204;22.552;2023-01-29T15:09:20;1.10;80.10
42965;DHT22;28604;51.204;22.552;2023-01-29T15:14:35;1.10;80.40
42965;DHT22;28604;51.204;22.552;2023-01-29T15:17:17;1.00;80.40
42965;DHT22;28604;51.204;22.552;2023-01-29T15:19:45;1.00;80.40
42965;DHT22;28604;51.204;22.552;2023-01-29T15:22:17;1.00;80.50
42965;DHT22;28604;51.204;22.552;2023-01-29T15:24:45;1.00;80.80
42965;DHT22;28604;51.204;22.552;2023-01-29T15:27:17;0.90;81.00
42965;DHT22;28604;51.204;22.552;2023-01-29T15:29:47;0.90;81.20
42965;DHT22;28604;51.204;22.552;2023-01-29T15:32:44;1.00;81.30
42965;DHT22;28604;51.204;22.552;2023-01-29T15:35:33;1.00;81.40
42965;DHT22;28604;51.204;22.552;2023-01-29T15:38:22;1.00;81.60
42965;DHT22;28604;51.204;22.552;2023-01-29T15:40:53;0.90;81.90
42965;DHT22;28604;51.204;22.552;2023-01-29T15:43:22;0.80;82.40
42965;DHT22;28604;51.204;22.552;2023-01-29T15:45:50;0.80;82.60
42965;DHT22;28604;51.204;22.552;2023-01-29T15:48:24;0.80;82.70
42965;DHT22;28604;51.204;22.552;2023-01-29T15:50:53;0.80;83.00
42965;DHT22;28604;51.204;22.552;2023-01-29T15:53:27;0.80;83.30
42965;DHT22;28604;51.204;22.552;2023-01-29T15:55:54;0.90;83.00
42965;DHT22;28604;51.204;22.552;2023-01-29T15:58:28;0.90;83.10
42965;DHT22;28604;51.204;22.552;2023-01-29T16:00:55;0.90;83.20
42965;DHT22;28604;51.204;22.552;2023-01-29T16:03:24;0.80;83.30
42965;DHT22;28604;51.204;22.552;2023-01-29T16:05:51;0.90;83.20
42965;DHT22;28604;51.204;22.552;2023-01-29T16:08:20;0.90;83.30
42965;DHT22;28604;51.204;22.552;2023-01-29T16:10:49;0.90;83.30
42965;DHT22;28604;51.204;22.552;2023-01-29T16:13:22;0.80;83.90
42965;DHT22;28604;51.204;22.552;2023-01-29T16:16:00;0.80;83.90
42965;DHT22;28604;51.204;22.552;2023-01-29T16:18:36;0.80;84.10
42965;DHT22;28604;51.204;22.552;2023-01-29T16:21:13;0.80;83.90
42965;DHT22;28604;51.204;22.552;2023-01-29T16:23:43;0.80;83.70
42965;DHT22;28604;51.204;22.552;2023-01-29T16:26:30;0.80;84.00
42965;DHT22;28604;51.204;22.552;2023-01-29T16:29:08;0.80;84.00
42965;DHT22;28604;51.204;22.552;2023-01-29T16:31:35;0.80;83.90
42965;DHT22;28604;51.204;22.552;2023-01-29T16:36:47;0.80;83.80
42965;DHT22;28604;51.204;22.552;2023-01-29T16:39:20;0.80;83.90
42965;DHT22;28604;51.204;22.552;2023-01-29T16:44:34;0.80;85.20
42965;DHT22;28604;51.204;22.552;2023-01-29T16:47:35;0.70;86.30
42965;DHT22;28604;51.204;22.552;2023-01-29T16:50:23;0.70;86.60
42965;DHT22;28604;51.204;22.552;2023-01-29T16:53:04;0.60;86.50
42965;DHT22;28604;51.204;22.552;2023-01-29T16:55:43;0.60;86.40
42965;DHT22;28604;51.204;22.552;2023-01-29T16:58:17;0.60;86.70
42965;DHT22;28604;51.204;22.552;2023-01-29T17:01:13;0.70;86.50
42965;DHT22;28604;51.204;22.552;2023-01-29T17:03:39;0.60;86.10
42965;DHT22;28604;51.204;22.552;2023-01-29T17:06:22;0.70;85.80
42965;DHT22;28604;51.204;22.552;2023-01-29T17:08:48;0.70;85.20
42965;DHT22;28604;51.204;22.552;2023-01-29T17:11:36;0.70;85.20
42965;DHT22;28604;51.204;22.552;2023-01-29T17:14:05;0.70;84.90
42965;DHT22;28604;51.204;22.552;2023-01-29T17:16:35;0.70;85.00
42965;DHT22;28604;51.204;22.552;2023-01-29T17:19:11;0.70;84.90
42965;DHT22;28604;51.204;22.552;2023-01-29T17:21:39;0.70;84.40
42965;DHT22;28604;51.204;22.552;2023-01-29T17:24:05;0.70;84.60
42965;DHT22;28604;51.204;22.552;2023-01-29T17:26:31;0.60;84.90
42965;DHT22;28604;51.204;22.552;2023-01-29T17:28:57;0.60;85.10
42965;DHT22;28604;51.204;22.552;2023-01-29T17:31:23;0.60;85.20
42965;DHT22;28604;51.204;22.552;2023-01-29T17:33:49;0.70;85.40
42965;DHT22;28604;51.204;22.552;2023-01-29T17:36:16;0.60;85.70
42965;DHT22;28604;51.204;22.552;2023-01-29T17:38:42;0.60;86.20
42965;DHT22;28604;51.204;22.552;2023-01-29T17:41:24;0.60;86.70
42965;DHT22;28604;51.204;22.552;2023-01-29T17:43:51;0.60;87.00
42965;DHT22;28604;51.204;22.552;2023-01-29T17:46:19;0.60;87.30
42965;DHT22;28604;51.204;22.552;2023-01-29T17:48:45;0.60;87.20
42965;DHT22;28604;51.204;22.552;2023-01-29T17:51:15;0.60;87.00
42965;DHT22;28604;51.204;22.552;2023-01-29T17:53:42;0.60;87.20
42965;DHT22;28604;51.204;22.552;2023-01-29T17:56:23;0.60;87.00
42965;DHT22;28604;51.204;22.552;2023-01-29T17:58:52;0.60;87.60
42965;DHT22;28604;51.204;22.552;2023-01-29T18:01:18;0.60;88.30
42965;DHT22;28604;51.204;22.552;2023-01-29T18:03:44;0.60;88.50
42965;DHT22;28604;51.204;22.552;2023-01-29T18:06:21;0.60;89.10
42965;DHT22;28604;51.204;22.552;2023-01-29T18:08:50;0.60;88.80
42965;DHT22;28604;51.204;22.552;2023-01-29T18:11:16;0.60;89.10
42965;DHT22;28604;51.204;22.552;2023-01-29T18:13:42;0.50;89.00
42965;DHT22;28604;51.204;22.552;2023-01-29T18:16:08;0.50;89.00
42965;DHT22;28604;51.204;22.552;2023-01-29T18:18:34;0.60;88.20
42965;DHT22;28604;51.204;22.552;2023-01-29T18:21:00;0.70;88.10
42965;DHT22;28604;51.204;22.552;2023-01-29T18:23:26;0.70;88.40
42965;DHT22;28604;51.204;22.552;2023-01-29T18:25:55;0.70;89.10
42965;DHT22;28604;51.204;22.552;2023-01-29T18:28:22;0.60;90.20
42965;DHT22;28604;51.204;22.552;2023-01-29T18:30:49;0.70;90.30
42965;DHT22;28604;51.204;22.552;2023-01-29T18:33:16;0.70;90.30
42965;DHT22;28604;51.204;22.552;2023-01-29T18:35:43;0.60;90.40